Time;durP1;ratioP1;P1;durP2;ratioP2;P2;SDS_P1;SDS_P2;PMS_P1;PMS_P2;Temp;Humidity;BMP_temperature;BMP_pressure;BME280_temperature;BME280_humidity;BME280_pressure;Samples;Min_cycle;Max_cycle;Signal;HPM_P1;HPM_P2
2023/08/12 00:01:31;;;;;;;18.02;10.07;;;;;;;20.30;nan;101726.03;5023422;28;20469;-75
2023/08/12 00:03:56;;;;;;;13.32;9.90;;;;;;;20.25;nan;101729.88;5025321;28;20129;-75
2023/08/12 00:06:21;;;;;;;17.35;10.63;;;;;;;20.22;nan;101711.50;5024914;28;20108;-75
2023/08/12 00:08:47;;;;;;;15.68;10.13;;;;;;;20.22;nan;101730.88;5024413;28;20025;-75
2023/08/12 00:11:12;;;;;;;15.85;10.77;;;;;;;20.18;nan;101725.81;5023867;28;20048;-76
2023/08/12 00:13:37;;;;;;;15.02;10.90;;;;;;;20.22;nan;101728.22;5023550;28;20030;-75
2023/08/12 00:16:03;;;;;;;14.68;9.98;;;;;;;20.22;nan;101719.44;5022231;28;20037;-75
2023/08/12 00:18:28;;;;;;;14.43;11.02;;;;;;;20.24;nan;101707.84;5026009;28;20193;-75
2023/08/12 00:20:55;;;;;;;20.58;11.85;;;;;;;20.23;nan;101710.56;5022936;28;20112;-75
2023/08/12 00:23:20;;;;;;;17.17;11.55;;;;;;;20.24;nan;101707.84;5024809;28;20172;-75
2023/08/12 00:25:45;;;;;;;16.00;11.60;;;;;;;20.22;nan;101704.41;5022615;28;20384;-75
2023/08/12 00:28:10;;;;;;;18.25;11.20;;;;;;;20.24;nan;101704.31;5023498;28;20484;-75
2023/08/12 00:30:36;;;;;;;13.85;9.85;;;;;;;20.24;nan;101705.19;5023263;28;20366;-76
2023/08/12 00:33:02;;;;;;;14.60;11.15;;;;;;;20.22;nan;101696.47;5022151;28;20047;-76
2023/08/12 00:35:27;;;;;;;16.20;11.07;;;;;;;20.25;nan;101687.50;5024327;28;20465;-75
2023/08/12 00:37:52;;;;;;;13.63;11.65;;;;;;;20.20;nan;101686.88;5023032;28;20056;-75
2023/08/12 00:40:18;;;;;;;14.10;10.90;;;;;;;20.23;nan;101684.94;5018633;28;20029;-75
2023/08/12 00:42:43;;;;;;;14.85;11.30;;;;;;;20.21;nan;101686.81;5020600;28;20477;-75
2023/08/12 00:45:12;;;;;;;16.05;10.65;;;;;;;20.27;nan;101685.63;5022413;28;20030;-75
2023/08/12 00:47:38;;;;;;;16.52;11.27;;;;;;;20.29;nan;101684.63;5022431;28;20120;-75
2023/08/12 00:50:05;;;;;;;16.10;11.35;;;;;;;20.23;nan;101684.94;5021568;28;20392;-76
2023/08/12 00:52:30;;;;;;;15.52;11.65;;;;;;;20.19;nan;101667.50;5023297;28;20052;-75
2023/08/12 00:54:55;;;;;;;15.90;12.60;;;;;;;20.24;nan;101676.06;5025474;28;20018;-75
2023/08/12 00:57:21;;;;;;;15.65;11.20;;;;;;;20.27;nan;101678.56;5021681;28;20045;-76
2023/08/12 00:59:48;;;;;;;14.80;11.32;;;;;;;20.29;nan;101673.19;5025293;28;20108;-76
2023/08/12 01:02:14;;;;;;;15.68;12.23;;;;;;;20.27;nan;101673.28;5020350;28;20127;-76
2023/08/12 01:04:40;;;;;;;17.15;12.05;;;;;;;20.24;nan;101676.06;5028780;28;20110;-76
2023/08/12 01:07:05;;;;;;;15.65;11.98;;;;;;;20.21;nan;101668.28;5017972;28;20397;-76
2023/08/12 01:09:30;;;;;;;15.85;12.13;;;;;;;20.26;nan;101668.03;5020495;28;20125;-76
2023/08/12 01:12:09;;;;;;;16.92;11.85;;;;;;;20.24;nan;101669.91;5025256;28;20021;-75
2023/08/12 01:15:12;;;;;;;18.95;12.27;;;;;;;20.23;nan;101665.53;5020850;28;20028;-75
2023/08/12 01:17:41;;;;;;;18.33;12.60;;;;;;;20.20;nan;101658.59;5021891;28;20033;-75
2023/08/12 01:20:14;;;;;;;15.18;11.70;;;;;;;20.21;nan;101652.41;5023208;28;20036;-75
2023/08/12 01:22:40;;;;;;;17.13;12.10;;;;;;;20.21;nan;101644.47;5021942;28;20501;-75
2023/08/12 01:25:06;;;;;;;18.40;12.38;;;;;;;20.18;nan;101643.75;5011428;28;20033;-75
2023/08/12 01:27:34;;;;;;;18.33;13.40;;;;;;;20.10;nan;101631.75;5022836;28;20091;-75
2023/08/12 01:29:59;;;;;;;15.77;12.35;;;;;;;20.09;nan;101635.34;5022339;28;20022;-75
2023/08/12 01:32:32;;;;;;;19.67;12.48;;;;;;;20.16;nan;101640.31;5023024;28;20463;-76
2023/08/12 01:35:05;;;;;;;14.45;11.77;;;;;;;20.03;nan;101622.41;5021310;28;20362;-76
2023/08/12 01:37:32;;;;;;;17.85;13.00;;;;;;;20.11;nan;101632.63;5023314;28;20809;-76
2023/08/12 01:40:00;;;;;;;18.30;12.55;;;;;;;20.10;nan;101630.91;5017950;28;20387;-76
2023/08/12 01:42:26;;;;;;;19.17;12.63;;;;;;;20.12;nan;101631.69;5022477;28;20457;-76
2023/08/12 01:44:51;;;;;;;15.68;12.30;;;;;;;20.05;nan;101625.00;5023506;28;20032;-76
2023/08/12 01:47:17;;;;;;;15.90;12.40;;;;;;;20.07;nan;101634.53;5021334;28;20037;-76
2023/08/12 01:49:42;;;;;;;16.50;12.95;;;;;;;20.05;nan;101635.59;5025145;28;20116;-76
2023/08/12 01:52:07;;;;;;;13.93;11.98;;;;;;;20.08;nan;101627.50;5020240;28;20026;-76
2023/08/12 01:54:34;;;;;;;13.65;11.50;;;;;;;20.08;nan;101622.19;5022737;28;20453;-76
2023/08/12 01:57:06;;;;;;;13.75;11.38;;;;;;;20.07;nan;101620.47;5019473;28;20392;-76
2023/08/12 01:59:32;;;;;;;18.43;11.63;;;;;;;20.07;nan;101633.69;5020067;28;20424;-76
2023/08/12 02:01:57;;;;;;;17.15;11.35;;;;;;;20.05;nan;101627.66;5016367;28;20038;-76
2023/08/12 02:04:23;;;;;;;15.05;10.63;;;;;;;20.08;nan;101615.09;5024439;28;20034;-76
2023/08/12 02:06:49;;;;;;;18.67;11.27;;;;;;;20.04;nan;101618.81;5011565;28;20033;-76
2023/08/12 02:09:15;;;;;;;14.43;10.82;;;;;;;20.04;nan;101610.88;5019318;28;20025;-76
2023/08/12 02:11:40;;;;;;;18.90;11.55;;;;;;;20.01;nan;101615.47;5019289;28;20084;-76
2023/08/12 02:14:05;;;;;;;18.02;11.63;;;;;;;20.00;nan;101608.47;5019625;28;20033;-76
2023/08/12 02:16:31;;;;;;;15.82;11.23;;;;;;;19.96;nan;101601.63;5020467;28;20124;-75
2023/08/12 02:18:56;;;;;;;18.33;10.60;;;;;;;19.96;nan;101610.44;5021907;28;20550;-76
2023/08/12 02:21:21;;;;;;;13.90;10.27;;;;;;;19.98;nan;101613.88;5021025;28;20042;-76
2023/08/12 02:23:47;;;;;;;14.90;9.38;;;;;;;19.92;nan;101606.22;5021819;28;20482;-76
2023/08/12 02:26:12;;;;;;;16.20;9.38;;;;;;;19.90;nan;101604.59;5022441;28;20029;-76
2023/08/12 02:28:37;;;;;;;17.83;8.85;;;;;;;19.92;nan;101600.94;5024515;28;20075;-76
2023/08/12 02:31:03;;;;;;;16.10;9.07;;;;;;;19.92;nan;101598.28;5015510;28;20474;-76
2023/08/12 02:33:28;;;;;;;16.92;9.50;;;;;;;19.84;nan;101592.50;5017523;28;20073;-76
2023/08/12 02:35:54;;;;;;;14.60;8.68;;;;;;;19.84;nan;101581.94;5017240;28;20019;-76
2023/08/12 02:38:20;;;;;;;13.18;8.65;;;;;;;19.77;nan;101586.69;5022083;28;20033;-76
2023/08/12 02:40:49;;;;;;;19.58;9.43;;;;;;;19.79;nan;101589.25;5017836;28;20080;-76
2023/08/12 02:43:16;;;;;;;12.63;8.90;;;;;;;19.66;nan;101569.66;5014800;28;20405;-76
2023/08/12 02:45:42;;;;;;;14.43;8.68;;;;;;;19.71;nan;101573.75;5019160;28;20032;-76
2023/08/12 02:48:09;;;;;;;17.40;9.45;;;;;;;19.74;nan;101570.97;5014016;28;20109;-76
2023/08/12 02:50:34;;;;;;;15.13;8.43;;;;;;;19.77;nan;101573.44;5025926;28;20536;-76
2023/08/12 02:53:00;;;;;;;14.30;8.38;;;;;;;19.75;nan;101571.81;5017244;28;20113;-76
2023/08/12 02:55:25;;;;;;;15.02;8.52;;;;;;;19.72;nan;101567.56;5025689;28;20033;-76
2023/08/12 02:57:50;;;;;;;12.32;8.43;;;;;;;19.71;nan;101570.25;5012532;28;20050;-76
2023/08/12 03:00:16;;;;;;;10.32;8.20;;;;;;;19.55;nan;101544.53;5018385;28;20095;-76
2023/08/12 03:02:43;;;;;;;14.27;8.68;;;;;;;19.69;nan;101565.06;5012488;28;20033;-76
2023/08/12 03:05:08;;;;;;;13.23;8.30;;;;;;;19.67;nan;101563.41;5015075;28;20400;-76
2023/08/12 03:07:34;;;;;;;12.32;7.85;;;;;;;19.57;nan;101540.03;5023859;28;20040;-76
2023/08/12 03:09:59;;;;;;;9.85;7.70;;;;;;;19.65;nan;101566.13;5016940;28;20030;-76
2023/08/12 03:12:25;;;;;;;11.77;7.85;;;;;;;19.53;nan;101546.41;5020857;28;20481;-76
2023/08/12 03:14:50;;;;;;;14.02;7.93;;;;;;;19.59;nan;101563.78;5018805;28;20018;-76
2023/08/12 03:17:15;;;;;;;12.60;7.90;;;;;;;19.61;nan;101552.16;5018689;28;20387;-75
2023/08/12 03:19:41;;;;;;;11.30;7.68;;;;;;;19.62;nan;101553.06;5020411;28;20037;-76
2023/08/12 03:22:07;;;;;;;11.63;8.00;;;;;;;19.60;nan;101552.25;5020306;28;20030;-75
2023/08/12 03:24:32;;;;;;;12.13;7.43;;;;;;;19.62;nan;101543.31;5017220;28;20025;-75
2023/08/12 03:26:58;;;;;;;12.07;7.60;;;;;;;19.55;nan;101536.59;5015209;28;20026;-76
2023/08/12 03:29:23;;;;;;;8.77;7.13;;;;;;;19.59;nan;101542.63;5022192;28;20465;-76
2023/08/12 03:31:48;;;;;;;13.32;7.55;;;;;;;19.52;nan;101538.53;5023328;28;20029;-77
2023/08/12 03:34:13;;;;;;;11.02;7.75;;;;;;;19.47;nan;101540.56;5022845;28;20106;-76
2023/08/12 03:36:39;;;;;;;11.05;8.35;;;;;;;19.41;nan;101531.16;5023593;28;20025;-75
2023/08/12 03:39:04;;;;;;;12.10;8.23;;;;;;;19.33;nan;101528.91;5023551;28;20033;-76
2023/08/12 03:41:30;;;;;;;10.32;8.05;;;;;;;19.27;nan;101523.06;5024730;28;20044;-76
2023/08/12 03:43:56;;;;;;;12.32;7.65;;;;;;;19.22;nan;101519.78;5024781;28;20492;-76
2023/08/12 03:46:21;;;;;;;11.38;7.88;;;;;;;19.13;nan;101515.81;5024888;28;20084;-76
2023/08/12 03:48:46;;;;;;;14.57;7.97;;;;;;;19.12;nan;101519.34;5026098;28;20382;-76
2023/08/12 03:51:11;;;;;;;9.13;6.65;;;;;;;19.19;nan;101520.75;5022632;28;20378;-75
2023/08/12 03:53:37;;;;;;;8.82;6.57;;;;;;;19.21;nan;101513.63;5029048;28;20470;-76
2023/08/12 03:56:02;;;;;;;11.73;6.72;;;;;;;19.18;nan;101497.91;5016393;28;20478;-75
2023/08/12 03:58:28;;;;;;;10.73;6.38;;;;;;;19.22;nan;101515.34;5028765;28;20072;-76
2023/08/12 04:00:53;;;;;;;11.05;6.65;;;;;;;19.25;nan;101515.19;5022138;28;20064;-75
2023/08/12 04:03:18;;;;;;;10.88;6.20;;;;;;;19.22;nan;101514.47;5027969;28;20029;-76
2023/08/12 04:05:49;;;;;;;9.30;6.00;;;;;;;19.26;nan;101518.69;5022777;28;20046;-76
2023/08/12 04:08:14;;;;;;;8.90;6.43;;;;;;;19.13;nan;101494.66;5027461;28;20056;-76
2023/08/12 04:10:39;;;;;;;10.73;6.15;;;;;;;19.23;nan;101503.84;5022858;28;20374;-75
2023/08/12 04:13:05;;;;;;;11.30;5.97;;;;;;;19.20;nan;101490.78;5018476;28;20602;-75
2023/08/12 04:15:30;;;;;;;10.52;6.22;;;;;;;19.29;nan;101489.44;5016126;28;20084;-76
2023/08/12 04:17:55;;;;;;;11.35;6.50;;;;;;;19.30;nan;101492.03;5023932;28;20591;-76
2023/08/12 04:20:22;;;;;;;10.90;6.38;;;;;;;19.27;nan;101501.91;5021519;28;20040;-76
2023/08/12 04:22:48;;;;;;;11.00;5.97;;;;;;;19.23;nan;101497.69;5027011;28;20068;-76
2023/08/12 04:25:14;;;;;;;10.85;6.57;;;;;;;19.15;nan;101498.06;5021402;28;20061;-76
2023/08/12 04:27:39;;;;;;;11.30;6.63;;;;;;;19.11;nan;101501.81;5023976;28;20063;-76
2023/08/12 04:30:05;;;;;;;9.18;6.80;;;;;;;19.07;nan;101501.09;5024253;28;20505;-76
2023/08/12 04:32:31;;;;;;;10.63;7.03;;;;;;;19.09;nan;101503.66;5024579;28;20528;-77
2023/08/12 04:34:56;;;;;;;11.50;7.63;;;;;;;19.04;nan;101506.53;5024698;28;20053;-76
2023/08/12 04:37:23;;;;;;;16.48;7.80;;;;;;;18.99;nan;101510.31;5022285;28;20396;-76
2023/08/12 04:39:49;;;;;;;12.50;8.57;;;;;;;18.97;nan;101504.25;5025053;28;20053;-77
2023/08/12 04:42:14;;;;;;;14.98;8.35;;;;;;;18.95;nan;101497.25;5019316;28;20072;-78
2023/08/12 04:44:39;;;;;;;11.55;9.00;;;;;;;18.99;nan;101486.53;5017861;28;20060;-78
2023/08/12 04:47:04;;;;;;;18.15;9.73;;;;;;;18.84;nan;101474.94;5020606;28;20060;-78
2023/08/12 04:49:30;;;;;;;20.17;9.98;;;;;;;18.86;nan;101497.69;5024333;28;20037;-80
2023/08/12 04:51:55;;;;;;;18.40;10.07;;;;;;;18.81;nan;101499.69;5023925;28;20029;-79
2023/08/12 04:54:21;;;;;;;18.08;11.13;;;;;;;18.88;nan;101506.41;5022663;28;20079;-79
2023/08/12 04:56:46;;;;;;;21.67;10.65;;;;;;;18.84;nan;101504.84;5024522;28;20512;-80
2023/08/12 04:59:11;;;;;;;14.40;9.80;;;;;;;18.77;nan;101487.56;5021268;28;20092;-78
2023/08/12 05:01:37;;;;;;;15.43;9.27;;;;;;;18.79;nan;101480.41;5024061;28;20489;-79
2023/08/12 05:04:02;;;;;;;14.10;8.48;;;;;;;18.75;nan;101486.78;5022482;28;20095;-79
2023/08/12 05:06:27;;;;;;;14.85;9.50;;;;;;;18.76;nan;101485.00;5020512;28;20041;-78
2023/08/12 05:08:53;;;;;;;12.85;9.57;;;;;;;18.69;nan;101489.69;5027718;28;20030;-78
2023/08/12 05:11:18;;;;;;;15.50;9.75;;;;;;;18.70;nan;101486.97;5020263;28;20041;-79
2023/08/12 05:13:43;;;;;;;15.07;9.93;;;;;;;18.66;nan;101481.91;5027895;28;20037;-79
2023/08/12 05:16:08;;;;;;;17.70;10.88;;;;;;;18.71;nan;101471.97;5017726;28;20033;-79
2023/08/12 05:18:34;;;;;;;23.65;11.77;;;;;;;18.73;nan;101480.69;5021269;28;20029;-79
2023/08/12 05:20:59;;;;;;;18.58;11.32;;;;;;;18.61;nan;101495.31;5022157;28;20030;-79
2023/08/12 05:23:24;;;;;;;18.00;11.48;;;;;;;18.65;nan;101493.41;5023397;28;20033;-80
2023/08/12 05:25:50;;;;;;;17.20;10.88;;;;;;;18.67;nan;101473.91;5021351;28;20033;-79
2023/08/12 05:28:15;;;;;;;16.23;10.00;;;;;;;18.59;nan;101477.84;5025461;28;20025;-79
2023/08/12 05:30:40;;;;;;;15.13;10.13;;;;;;;18.66;nan;101492.47;5013168;28;20028;-80
2023/08/12 05:33:06;;;;;;;16.65;10.65;;;;;;;18.65;nan;101480.19;5025983;28;20138;-80
2023/08/12 05:35:34;;;;;;;14.73;9.80;;;;;;;18.69;nan;101484.41;5020267;28;20026;-79
2023/08/12 05:38:00;;;;;;;19.13;10.30;;;;;;;18.63;nan;101485.53;5018485;28;20025;-80
2023/08/12 05:40:26;;;;;;;13.32;9.15;;;;;;;18.68;nan;101475.63;5022232;28;20396;-80
2023/08/12 05:42:52;;;;;;;13.55;9.45;;;;;;;18.78;nan;101476.06;5026370;28;20022;-80
2023/08/12 05:45:17;;;;;;;12.93;9.25;;;;;;;18.74;nan;101476.28;5020910;28;20488;-81
2023/08/12 05:47:42;;;;;;;11.05;7.97;;;;;;;18.73;nan;101486.00;5023693;28;20426;-80
2023/08/12 05:50:08;;;;;;;15.65;9.10;;;;;;;18.62;nan;101473.25;5023059;28;20033;-81
2023/08/12 05:52:33;;;;;;;11.68;8.13;;;;;;;18.65;nan;101473.13;5021861;28;20032;-81
2023/08/12 05:54:59;;;;;;;12.35;8.70;;;;;;;18.71;nan;101482.56;5022936;28;20104;-81
2023/08/12 05:57:24;;;;;;;14.13;8.95;;;;;;;18.67;nan;101470.41;5021667;28;20472;-81
2023/08/12 05:59:49;;;;;;;15.93;9.10;;;;;;;18.64;nan;101471.41;5015861;28;20025;-81
2023/08/12 06:02:15;;;;;;;15.05;8.40;;;;;;;18.62;nan;101485.63;5019243;28;20551;-81
2023/08/12 06:04:40;;;;;;;16.13;9.80;;;;;;;18.69;nan;101476.47;5022909;28;20039;-81
2023/08/12 06:07:05;;;;;;;14.52;9.57;;;;;;;18.69;nan;101455.34;5019767;28;20138;-81
2023/08/12 06:09:31;;;;;;;12.20;9.98;;;;;;;18.73;nan;101470.13;5017808;28;20030;-81
2023/08/12 06:11:56;;;;;;;13.32;9.45;;;;;;;18.69;nan;101457.97;5023139;28;20053;-81
2023/08/12 06:14:21;;;;;;;13.77;9.35;;;;;;;18.85;nan;101458.16;5022120;28;20529;-81
2023/08/12 06:16:47;;;;;;;12.68;9.35;;;;;;;18.82;nan;101467.06;5016646;28;20532;-80
2023/08/12 06:19:12;;;;;;;13.23;8.68;;;;;;;18.78;nan;101462.00;5019051;28;20038;-81
2023/08/12 06:21:37;;;;;;;11.95;8.50;;;;;;;18.64;nan;101438.88;5016377;28;20033;-82
2023/08/12 06:24:03;;;;;;;15.73;8.90;;;;;;;18.74;nan;101442.81;5023046;28;20446;-82
2023/08/12 06:26:28;;;;;;;12.73;8.75;;;;;;;18.71;nan;101437.66;5016393;28;20033;-82
2023/08/12 06:28:53;;;;;;;9.68;8.13;;;;;;;18.78;nan;101438.25;5020143;28;20022;-81
2023/08/12 06:31:19;;;;;;;12.25;8.52;;;;;;;18.80;nan;101439.88;5017685;28;20116;-82
2023/08/12 06:33:44;;;;;;;10.25;7.63;;;;;;;18.83;nan;101437.06;5020682;28;20042;-81
2023/08/12 06:36:09;;;;;;;11.45;8.15;;;;;;;18.88;nan;101436.88;5012123;28;20120;-84
2023/08/12 06:38:35;;;;;;;10.82;7.20;;;;;;;18.91;nan;101436.72;5023067;28;20030;-85
2023/08/12 06:41:00;;;;;;;10.07;7.50;;;;;;;18.91;nan;101432.28;5020370;28;20170;-84
2023/08/12 06:43:25;;;;;;;8.30;6.70;;;;;;;18.95;nan;101433.84;5024971;28;20228;-82
2023/08/12 06:45:51;;;;;;;8.07;7.05;;;;;;;18.93;nan;101434.84;5013230;28;20058;-83
2023/08/12 06:48:17;;;;;;;8.55;7.25;;;;;;;19.04;nan;101429.91;5026046;28;20117;-82
2023/08/12 06:50:42;;;;;;;8.02;7.22;;;;;;;19.09;nan;101434.94;5019315;28;20458;-81
2023/08/12 06:53:07;;;;;;;8.23;6.97;;;;;;;19.10;nan;101436.66;5026535;28;20040;-81
2023/08/12 06:55:33;;;;;;;8.02;6.35;;;;;;;19.08;nan;101417.38;5012023;28;20104;-81
2023/08/12 06:57:59;;;;;;;8.75;7.50;;;;;;;19.15;nan;101418.78;5024220;28;20048;-82
2023/08/12 07:00:24;;;;;;;9.00;7.22;;;;;;;19.21;nan;101417.63;5013228;28;20030;-82
2023/08/12 07:02:50;;;;;;;11.07;7.93;;;;;;;19.23;nan;101421.03;5018303;28;20056;-82
2023/08/12 07:05:15;;;;;;;8.75;7.22;;;;;;;19.20;nan;101422.06;5023469;28;20472;-81
2023/08/12 07:07:40;;;;;;;8.13;7.32;;;;;;;19.24;nan;101420.97;5015883;28;20029;-81
2023/08/12 07:10:06;;;;;;;9.00;7.70;;;;;;;19.14;nan;101419.72;5024444;28;20465;-81
2023/08/12 07:12:32;;;;;;;8.75;7.85;;;;;;;19.19;nan;101422.97;5023343;28;20099;-81
2023/08/12 07:14:58;;;;;;;9.48;8.02;;;;;;;19.22;nan;101416.69;5022182;28;20033;-81
2023/08/12 07:17:23;;;;;;;9.10;8.20;;;;;;;19.20;nan;101421.22;5027570;28;20034;-81
2023/08/12 07:19:48;;;;;;;10.05;8.20;;;;;;;19.16;nan;101415.19;5013990;28;20355;-80
2023/08/12 07:22:14;;;;;;;9.65;8.57;;;;;;;19.14;nan;101417.09;5025449;28;20110;-81
2023/08/12 07:24:39;;;;;;;11.95;9.02;;;;;;;19.14;nan;101417.09;5027425;28;20033;-79
2023/08/12 07:27:04;;;;;;;14.88;8.95;;;;;;;19.12;nan;101424.22;5015365;28;20507;-78
2023/08/12 07:29:30;;;;;;;9.85;8.88;;;;;;;19.13;nan;101420.66;5020284;28;20245;-79
2023/08/12 07:31:55;;;;;;;11.50;9.60;;;;;;;19.10;nan;101420.81;5022654;28;20112;-78
2023/08/12 07:34:21;;;;;;;10.85;9.25;;;;;;;19.13;nan;101420.66;5022942;28;20041;-79
2023/08/12 07:36:46;;;;;;;11.23;10.15;;;;;;;19.14;nan;101414.44;5025312;28;20163;-79
2023/08/12 07:39:11;;;;;;;9.55;8.55;;;;;;;19.19;nan;101420.31;5012978;28;20033;-79
2023/08/12 07:41:37;;;;;;;11.75;9.48;;;;;;;19.26;nan;101420.88;5017728;28;20041;-79
2023/08/12 07:44:03;;;;;;;12.57;9.38;;;;;;;19.32;nan;101418.78;5022710;28;20021;-79
2023/08/12 07:46:29;;;;;;;13.73;9.63;;;;;;;19.39;nan;101416.66;5017331;28;20036;-80
2023/08/12 07:48:55;;;;;;;10.23;8.60;;;;;;;19.42;nan;101417.41;5016750;28;20469;-80
2023/08/12 07:51:20;;;;;;;11.10;8.05;;;;;;;19.46;nan;101404.03;5023201;28;20048;-80
2023/08/12 07:53:46;;;;;;;8.48;7.30;;;;;;;19.49;nan;101422.34;5021590;28;21705;-80
2023/08/12 07:56:11;;;;;;;8.55;7.18;;;;;;;19.50;nan;101413.50;5021158;28;20474;-80
2023/08/12 07:58:36;;;;;;;8.23;6.50;;;;;;;19.52;nan;101424.84;5017239;28;20037;-79
2023/08/12 08:01:02;;;;;;;8.98;6.38;;;;;;;19.66;nan;101427.66;5019864;28;20025;-81
2023/08/12 08:03:27;;;;;;;8.98;6.38;;;;;;;19.88;nan;101422.97;5022059;28;20132;-81
2023/08/12 08:05:52;;;;;;;8.77;6.30;;;;;;;19.92;nan;101431.59;5028048;28;20026;-83
2023/08/12 08:08:18;;;;;;;8.88;6.30;;;;;;;20.05;nan;101427.34;5019840;28;20034;-82
2023/08/12 08:10:43;;;;;;;7.32;5.85;;;;;;;20.06;nan;101429.03;5011073;28;20037;-81
2023/08/12 08:13:09;;;;;;;5.25;4.75;;;;;;;19.99;nan;101432.13;5020127;28;20033;-82
2023/08/12 08:15:34;;;;;;;5.07;4.57;;;;;;;19.90;nan;101444.03;5014616;28;20030;-81
2023/08/12 08:18:01;;;;;;;8.35;4.88;;;;;;;19.92;nan;101430.75;5024087;28;20100;-81
2023/08/12 08:20:26;;;;;;;7.50;4.57;;;;;;;19.95;nan;101442.00;5015649;28;20030;-81
2023/08/12 08:22:51;;;;;;;4.88;4.47;;;;;;;19.94;nan;101439.44;5022579;28;20041;-80
2023/08/12 08:25:16;;;;;;;5.00;4.50;;;;;;;19.87;nan;101447.69;5020639;28;20038;-79
2023/08/12 08:27:42;;;;;;;5.28;4.80;;;;;;;19.96;nan;101437.56;5021732;28;20034;-80
2023/08/12 08:30:08;;;;;;;8.10;5.28;;;;;;;20.05;nan;101435.28;5017333;28;20026;-80
2023/08/12 08:32:34;;;;;;;6.20;5.60;;;;;;;20.09;nan;101443.91;5016361;28;20030;-80
2023/08/12 08:34:59;;;;;;;7.30;5.97;;;;;;;20.16;nan;101440.00;5025260;28;20041;-80
2023/08/12 08:37:24;;;;;;;8.43;7.53;;;;;;;20.32;nan;101446.16;5016298;28;20033;-79
2023/08/12 08:39:50;;;;;;;8.07;7.35;;;;;;;20.51;nan;101447.84;5020637;28;20026;-79
2023/08/12 08:42:18;;;;;;;9.07;8.18;;;;;;;20.71;nan;101442.28;5022695;28;20033;-80
2023/08/12 08:44:45;;;;;;;9.65;8.57;;;;;;;20.73;nan;101442.16;5024204;28;20037;-79
2023/08/12 08:47:15;;;;;;;10.27;9.38;;;;;;;20.66;nan;101446.97;5015341;28;20045;-79
2023/08/12 08:49:41;;;;;;;11.10;9.85;;;;;;;20.65;nan;101445.25;5026201;28;20021;-80
2023/08/12 08:52:07;;;;;;;11.27;10.25;;;;;;;20.61;nan;101448.19;5022036;28;20037;-82
2023/08/12 08:54:34;;;;;;;11.30;10.30;;;;;;;20.58;nan;101451.84;5023297;28;20028;-80
2023/08/12 08:56:59;;;;;;;12.07;11.02;;;;;;;20.62;nan;101455.19;5023893;28;20053;-80
2023/08/12 08:59:24;;;;;;;11.82;10.73;;;;;;;20.52;nan;101441.59;5022606;28;20115;-80
2023/08/12 09:01:51;;;;;;;15.27;11.10;;;;;;;20.44;nan;101438.50;5019760;28;20017;-79
2023/08/12 09:04:18;;;;;;;12.65;11.10;;;;;;;20.53;nan;101444.13;5022375;28;20388;-80
2023/08/12 09:06:44;;;;;;;11.80;10.30;;;;;;;20.62;nan;101452.53;5024248;28;20036;-80
2023/08/12 09:09:13;;;;;;;11.05;10.05;;;;;;;20.61;nan;101451.69;5017377;28;20037;-85
2023/08/12 09:11:40;;;;;;;9.65;8.88;;;;;;;20.67;nan;101466.38;5020698;28;20076;-78
2023/08/12 09:14:06;;;;;;;9.80;8.88;;;;;;;20.77;nan;101449.88;5022555;28;20030;-79
2023/08/12 09:16:31;;;;;;;8.85;8.13;;;;;;;20.86;nan;101444.97;5014833;28;20025;-79
2023/08/12 09:18:58;;;;;;;9.30;8.50;;;;;;;21.06;nan;101455.31;5022781;28;20497;-79
2023/08/12 09:21:23;;;;;;;9.75;7.57;;;;;;;21.17;nan;101463.50;5016271;28;20060;-79
2023/08/12 09:23:49;;;;;;;9.15;6.57;;;;;;;21.20;nan;101475.72;5012790;28;20057;-78
2023/08/12 09:26:20;;;;;;;6.68;6.18;;;;;;;21.19;nan;101476.66;5019078;28;20465;-78
2023/08/12 09:28:46;;;;;;;5.57;5.13;;;;;;;21.00;nan;101468.91;5020414;28;20351;-78
2023/08/12 09:31:26;;;;;;;5.47;4.97;;;;;;;20.68;nan;101481.34;5023585;28;20432;-78
2023/08/12 09:33:52;;;;;;;5.88;5.35;;;;;;;20.40;nan;101485.44;5019094;28;20092;-78
2023/08/12 09:36:18;;;;;;;4.93;4.53;;;;;;;20.20;nan;101490.97;5021152;28;20036;-78
2023/08/12 09:38:44;;;;;;;5.63;5.03;;;;;;;20.15;nan;101490.38;5023417;28;20030;-78
2023/08/12 09:41:09;;;;;;;5.50;4.88;;;;;;;20.17;nan;101489.34;5021161;28;20134;-78
2023/08/12 09:43:39;;;;;;;7.10;4.85;;;;;;;20.23;nan;101475.78;5015021;28;20486;-78
2023/08/12 09:46:05;;;;;;;6.10;4.45;;;;;;;20.27;nan;101473.81;5007262;28;20064;-78
2023/08/12 09:48:30;;;;;;;4.30;3.90;;;;;;;20.29;nan;101482.53;5010564;28;20049;-78
2023/08/12 09:50:56;;;;;;;4.35;3.75;;;;;;;20.28;nan;101492.28;5018246;28;20493;-78
2023/08/12 09:53:26;;;;;;;4.65;3.35;;;;;;;20.30;nan;101487.75;5011331;28;20034;-79
2023/08/12 09:55:52;;;;;;;6.55;3.50;;;;;;;20.51;nan;101483.13;5017286;28;20025;-77
2023/08/12 09:58:18;;;;;;;6.03;3.80;;;;;;;20.52;nan;101482.16;5020384;28;20108;-77
2023/08/12 10:00:45;;;;;;;7.13;3.75;;;;;;;20.61;nan;101494.06;5015498;28;20025;-77
2023/08/12 10:03:14;;;;;;;3.60;3.22;;;;;;;20.78;nan;101490.47;5022765;28;20041;-77
2023/08/12 10:05:39;;;;;;;4.63;4.00;;;;;;;20.81;nan;101491.16;5021411;28;20026;-79
2023/08/12 10:08:07;;;;;;;5.13;3.70;;;;;;;20.62;nan;101490.47;5023012;28;20018;-78
2023/08/12 10:10:34;;;;;;;6.60;3.70;;;;;;;20.80;nan;101484.16;5020681;28;20025;-78
2023/08/12 10:13:01;;;;;;;7.20;3.78;;;;;;;21.23;nan;101496.75;5023553;28;20033;-77
2023/08/12 10:15:26;;;;;;;6.53;3.70;;;;;;;21.37;nan;101493.34;5014628;28;20022;-78
2023/08/12 10:17:52;;;;;;;10.68;3.70;;;;;;;21.35;nan;101493.41;5025973;28;20025;-77
2023/08/12 10:20:25;;;;;;;6.82;3.40;;;;;;;21.51;nan;101482.75;5019584;28;20018;-77
2023/08/12 10:22:51;;;;;;;;;;;;;;;21.74;nan;101487.56;5025807;28;20037;-78
2023/08/12 10:25:21;;;;;;;3.63;2.60;;;;;;;21.85;nan;101494.03;5011963;28;19972;-78
2023/08/12 10:27:47;;;;;;;4.90;2.67;;;;;;;21.53;nan;101495.94;5026361;28;20033;-78
2023/08/12 10:30:13;;;;;;;5.00;2.60;;;;;;;21.26;nan;101488.63;5019018;28;20053;-78
2023/08/12 10:32:39;;;;;;;4.60;2.40;;;;;;;21.37;nan;101486.22;5024883;28;20044;-77
2023/08/12 10:35:05;;;;;;;5.78;2.65;;;;;;;21.54;nan;101476.41;5015755;28;20046;-77
2023/08/12 10:37:34;;;;;;;3.53;2.33;;;;;;;21.89;nan;101476.94;5020650;28;20040;-77
2023/08/12 10:40:07;;;;;;;3.22;2.15;;;;;;;22.16;nan;101469.97;5023192;28;20025;-78
2023/08/12 10:42:44;;;;;;;4.93;2.30;;;;;;;22.51;nan;101482.84;5017605;28;20049;-77
2023/08/12 10:45:12;;;;;;;5.70;2.08;;;;;;;22.48;nan;101484.84;5024118;28;20038;-78
2023/08/12 10:47:57;;;;;;;3.63;2.00;;;;;;;22.49;nan;101490.03;5025342;28;20064;-77
2023/08/12 10:50:25;;;;;;;3.40;1.77;;;;;;;22.32;nan;101495.56;5011437;28;20037;-77
2023/08/12 10:52:53;;;;;;;7.50;1.90;;;;;;;22.19;nan;101493.69;5026533;28;20029;-77
2023/08/12 10:55:20;;;;;;;5.25;2.05;;;;;;;22.32;nan;101492.91;5020640;28;20088;-77
2023/08/12 10:57:46;;;;;;;6.03;2.38;;;;;;;22.43;nan;101474.50;5017612;28;20084;-77
2023/08/12 11:00:29;;;;;;;4.20;2.30;;;;;;;22.55;nan;101496.78;5024882;28;20470;-77
2023/08/12 11:02:56;;;;;;;5.68;1.88;;;;;;;22.15;nan;101502.78;5019766;28;20040;-77
2023/08/12 11:05:23;;;;;;;5.03;2.17;;;;;;;21.96;nan;101502.19;5024285;28;20373;-77
2023/08/12 11:07:57;;;;;;;4.93;2.00;;;;;;;22.01;nan;101507.19;5024673;28;20028;-77
2023/08/12 11:10:25;;;;;;;4.57;1.90;;;;;;;22.08;nan;101505.91;5025006;28;20025;-77
2023/08/12 11:12:55;;;;;;;7.28;2.65;;;;;;;22.13;nan;101507.28;5023697;28;20473;-77
2023/08/12 11:15:37;;;;;;;5.70;2.20;;;;;;;22.19;nan;101503.44;5018220;28;20034;-77
2023/08/12 11:18:16;;;;;;;5.43;1.90;;;;;;;22.09;nan;101487.19;5016554;28;20109;-77
2023/08/12 11:20:42;;;;;;;6.68;2.15;;;;;;;22.17;nan;101497.38;5023022;28;20058;-77
2023/08/12 11:23:09;;;;;;;6.25;2.17;;;;;;;22.39;nan;101496.91;5026772;28;20068;-76
2023/08/12 11:25:37;;;;;;;4.55;1.77;;;;;;;22.78;nan;101485.53;5021223;28;20026;-77
2023/08/12 11:28:04;;;;;;;3.33;2.00;;;;;;;23.19;nan;101489.16;5027850;28;20040;-77
2023/08/12 11:30:29;;;;;;;6.35;2.25;;;;;;;23.32;nan;101487.38;5021392;28;20041;-77